createdAt,value
2018-02-10T00:01:51.400Z,26.95
2018-02-10T00:04:18.893Z,25.33
2018-02-10T00:06:46.366Z,25.88
2018-02-10T00:09:13.784Z,24.77
2018-02-10T00:11:41.284Z,25.75
2018-02-10T00:14:08.688Z,26.98
2018-02-10T00:16:36.113Z,26.80
2018-02-10T00:19:03.536Z,26.73
2018-02-10T00:21:30.952Z,26.70
2018-02-10T00:23:58.399Z,25.83
2018-02-10T00:26:25.832Z,26.12
2018-02-10T00:28:53.304Z,26.45
2018-02-10T00:31:20.711Z,24.90
2018-02-10T00:33:48.124Z,26.33
2018-02-10T00:36:15.569Z,24.90
2018-02-10T00:38:43.005Z,25.62
2018-02-10T00:41:10.484Z,25.50
2018-02-10T00:43:37.894Z,28.73
2018-02-10T00:46:05.316Z,27.05
2018-02-10T00:48:32.750Z,26.62
2018-02-10T00:51:00.208Z,27.23
2018-02-10T00:53:27.680Z,27.40
2018-02-10T00:55:55.081Z,26.80
2018-02-10T00:58:22.509Z,26.40
2018-02-10T01:00:49.933Z,26.33
2018-02-10T01:03:17.401Z,27.30
2018-02-10T01:05:44.848Z,26.35
2018-02-10T01:08:12.299Z,26.87
2018-02-10T01:10:39.744Z,26.17
2018-02-10T01:13:07.194Z,26.55
2018-02-10T01:15:34.657Z,26.35
2018-02-10T01:18:02.080Z,26.20
2018-02-10T01:20:29.507Z,28.38
2018-02-10T01:22:56.941Z,30.40
2018-02-10T01:25:24.373Z,30.02
2018-02-10T01:27:51.813Z,27.30
2018-02-10T01:30:19.246Z,28.83
2018-02-10T01:32:46.813Z,30.70
2018-02-10T01:35:14.252Z,26.35
2018-02-10T01:37:41.684Z,29.50
2018-02-10T01:40:09.129Z,28.87
2018-02-10T01:42:36.553Z,27.95
2018-02-10T01:45:04.011Z,31.00
2018-02-10T01:47:31.433Z,31.35
2018-02-10T01:50:10.553Z,30.30
2018-02-10T01:52:38.077Z,29.85
2018-02-10T01:55:05.496Z,28.90
2018-02-10T01:57:32.904Z,33.75
2018-02-10T02:00:00.436Z,33.78
2018-02-10T02:02:27.874Z,32.00
2018-02-10T02:04:55.308Z,31.55
2018-02-10T02:07:22.734Z,32.63
2018-02-10T02:09:50.152Z,32.50
2018-02-10T02:12:17.577Z,30.92
2018-02-10T02:14:45.039Z,34.25
2018-02-10T02:17:12.448Z,34.13
2018-02-10T02:19:39.901Z,31.37
2018-02-10T02:22:07.341Z,33.40
2018-02-10T02:24:34.793Z,31.90
2018-02-10T02:27:02.260Z,35.75
2018-02-10T02:29:29.731Z,32.97
2018-02-10T02:31:57.149Z,32.78
2018-02-10T02:34:24.574Z,34.00
2018-02-10T02:36:52.009Z,35.88
2018-02-10T02:39:19.465Z,33.90
2018-02-10T02:41:46.916Z,35.20
2018-02-10T02:44:14.363Z,33.83
2018-02-10T02:46:41.778Z,33.72
2018-02-10T02:49:09.203Z,34.92
2018-02-10T02:51:36.665Z,33.95
2018-02-10T02:54:09.453Z,37.10
2018-02-10T02:56:36.880Z,35.90
2018-02-10T02:59:04.317Z,36.15
2018-02-10T03:01:31.752Z,35.38
2018-02-10T03:03:59.169Z,34.88
2018-02-10T03:06:26.629Z,36.33
2018-02-10T03:08:54.068Z,33.88
2018-02-10T03:11:21.513Z,35.25
2018-02-10T03:13:48.941Z,35.47
2018-02-10T03:16:16.360Z,36.42
2018-02-10T03:18:43.789Z,35.70
2018-02-10T03:21:11.221Z,36.17
2018-02-10T03:23:38.684Z,33.47
2018-02-10T03:26:06.092Z,34.17
2018-02-10T03:28:33.547Z,35.20
2018-02-10T03:31:00.998Z,35.08
2018-02-10T03:33:28.432Z,34.65
2018-02-10T03:35:55.844Z,33.03
2018-02-10T03:38:23.256Z,35.17
2018-02-10T03:40:50.685Z,34.10
2018-02-10T03:43:18.126Z,33.70
2018-02-10T03:45:45.568Z,36.50
2018-02-10T03:48:13.030Z,38.42
2018-02-10T03:50:40.449Z,35.88
2018-02-10T03:53:07.882Z,35.58
2018-02-10T03:55:35.349Z,36.20
2018-02-10T03:58:02.797Z,35.05
2018-02-10T04:00:30.257Z,33.90
2018-02-10T04:02:57.685Z,35.05
2018-02-10T04:05:25.110Z,35.20
2018-02-10T04:07:52.528Z,35.53
2018-02-10T04:10:19.969Z,36.83
2018-02-10T04:12:47.396Z,34.70
2018-02-10T04:15:14.866Z,37.58
2018-02-10T04:17:42.272Z,35.13
2018-02-10T04:20:09.712Z,34.85
2018-02-10T04:22:37.440Z,35.55
2018-02-10T04:25:04.861Z,34.63
2018-02-10T04:27:32.318Z,36.85
2018-02-10T04:29:59.736Z,33.75
2018-02-10T04:32:27.165Z,34.95
2018-02-10T04:34:54.595Z,37.25
2018-02-10T04:37:22.052Z,36.85
2018-02-10T04:39:49.499Z,32.92
2018-02-10T04:42:16.933Z,34.30
2018-02-10T04:44:44.349Z,36.38
2018-02-10T04:47:11.798Z,35.90
2018-02-10T04:49:39.251Z,35.42
2018-02-10T04:52:06.688Z,33.97
2018-02-10T04:54:34.130Z,34.95
2018-02-10T04:57:01.617Z,35.60
2018-02-10T04:59:29.045Z,36.03
2018-02-10T05:01:56.484Z,36.50
2018-02-10T05:04:23.912Z,35.00
2018-02-10T05:06:51.334Z,34.17
2018-02-10T05:09:18.745Z,37.80
2018-02-10T05:11:46.212Z,37.47
2018-02-10T05:14:13.630Z,34.58
2018-02-10T05:16:41.056Z,37.05
2018-02-10T05:19:08.511Z,36.15
2018-02-10T05:21:35.987Z,33.63
2018-02-10T05:24:03.420Z,33.72
2018-02-10T05:26:30.877Z,34.35
2018-02-10T05:28:58.343Z,35.10
2018-02-10T05:31:25.759Z,37.08
2018-02-10T05:33:53.172Z,34.33
2018-02-10T05:36:20.636Z,36.38
2018-02-10T05:38:48.051Z,35.65
2018-02-10T05:41:15.503Z,34.53
2018-02-10T05:43:42.920Z,33.30
2018-02-10T05:46:10.364Z,35.15
2018-02-10T05:48:37.792Z,35.17
2018-02-10T05:51:05.245Z,35.40
2018-02-10T05:53:32.721Z,34.30
2018-02-10T05:56:00.146Z,34.13
2018-02-10T05:58:27.568Z,35.20
2018-02-10T06:00:54.988Z,35.53
2018-02-10T06:03:22.403Z,34.53
2018-02-10T06:05:49.832Z,32.92
2018-02-10T06:08:17.260Z,35.72
2018-02-10T06:10:44.735Z,35.33
2018-02-10T06:13:12.141Z,34.47
2018-02-10T06:15:39.573Z,33.80
2018-02-10T06:18:07.021Z,34.10
2018-02-10T06:20:34.448Z,33.92
2018-02-10T06:23:01.868Z,32.83
2018-02-10T06:25:29.318Z,35.13
2018-02-10T06:27:56.764Z,34.22
2018-02-10T06:30:24.225Z,34.00
2018-02-10T06:32:51.662Z,34.25
2018-02-10T06:35:19.132Z,34.17
2018-02-10T06:37:46.643Z,34.08
2018-02-10T06:40:14.093Z,33.80
2018-02-10T06:42:41.533Z,33.30
2018-02-10T06:45:09.006Z,31.90
2018-02-10T06:47:36.441Z,34.58
2018-02-10T06:50:03.896Z,32.80
2018-02-10T06:52:31.320Z,33.30
2018-02-10T06:54:58.764Z,32.65
2018-02-10T06:57:26.207Z,32.67
2018-02-10T06:59:53.648Z,30.27
2018-02-10T07:02:21.137Z,31.52
2018-02-10T07:04:48.953Z,30.73
2018-02-10T07:07:16.356Z,33.67
2018-02-10T07:09:43.785Z,33.75
2018-02-10T07:12:11.234Z,33.42
2018-02-10T07:14:38.648Z,33.28
2018-02-10T07:17:06.083Z,33.47
2018-02-10T07:19:33.529Z,33.30
2018-02-10T07:22:00.951Z,33.03
2018-02-10T07:24:28.385Z,34.00
2018-02-10T07:26:55.812Z,31.50
2018-02-10T07:29:23.236Z,32.10
2018-02-10T07:31:50.657Z,33.22
2018-02-10T07:34:18.079Z,31.65
2018-02-10T07:36:45.516Z,31.60
2018-02-10T07:39:12.924Z,31.85
2018-02-10T07:41:40.388Z,31.62
2018-02-10T07:44:07.813Z,30.23
2018-02-10T07:46:35.268Z,31.33
2018-02-10T07:49:02.716Z,31.35
2018-02-10T07:51:30.160Z,30.33
2018-02-10T07:53:57.671Z,30.92
2018-02-10T07:56:25.162Z,30.20
2018-02-10T07:58:52.568Z,31.33
2018-02-10T08:01:20.024Z,32.58
2018-02-10T08:03:47.474Z,31.70
2018-02-10T08:06:15.021Z,31.45
2018-02-10T08:08:42.467Z,29.58
2018-02-10T08:11:10.717Z,30.67
2018-02-10T08:13:38.186Z,31.75
2018-02-10T08:16:05.612Z,30.90
2018-02-10T08:18:33.094Z,30.60
2018-02-10T08:21:00.565Z,31.08
2018-02-10T08:23:28.148Z,30.85
2018-02-10T08:25:55.676Z,29.50
2018-02-10T08:28:23.475Z,30.27
2018-02-10T08:30:50.960Z,31.02
2018-02-10T08:33:18.389Z,29.80
2018-02-10T08:35:45.865Z,29.52
2018-02-10T08:38:13.293Z,28.85
2018-02-10T08:40:40.763Z,29.80
2018-02-10T08:43:08.201Z,28.75
2018-02-10T08:45:35.643Z,30.83
2018-02-10T08:48:03.189Z,27.33
2018-02-10T08:50:30.629Z,29.45
2018-02-10T08:52:58.044Z,27.40
2018-02-10T08:55:25.491Z,29.00
2018-02-10T08:57:52.945Z,29.63
2018-02-10T09:00:20.365Z,28.23
2018-02-10T09:02:47.817Z,27.45
2018-02-10T09:05:15.241Z,27.17
2018-02-10T09:07:42.684Z,26.90
2018-02-10T09:10:10.116Z,28.35
2018-02-10T09:12:37.537Z,27.87
2018-02-10T09:15:05.068Z,27.30
2018-02-10T09:17:32.469Z,28.15
2018-02-10T09:19:59.873Z,26.50
2018-02-10T09:22:27.304Z,24.70
2018-02-10T09:24:54.728Z,25.85
2018-02-10T09:27:22.158Z,27.70
2018-02-10T09:29:49.634Z,25.62
2018-02-10T09:32:17.093Z,27.55
2018-02-10T09:34:44.525Z,28.50
2018-02-10T09:37:11.944Z,28.33
2018-02-10T09:39:39.368Z,27.00
2018-02-10T09:42:06.800Z,27.98
2018-02-10T09:44:34.225Z,29.05
2018-02-10T09:47:01.701Z,26.90
2018-02-10T09:49:29.145Z,29.55
2018-02-10T09:51:56.568Z,29.15
2018-02-10T09:54:24.040Z,28.10
2018-02-10T09:56:51.539Z,27.27
2018-02-10T09:59:18.984Z,27.67
2018-02-10T10:01:46.476Z,27.23
2018-02-10T10:04:13.843Z,27.70
2018-02-10T10:06:41.316Z,26.98
2018-02-10T10:09:08.732Z,29.10
2018-02-10T10:11:36.173Z,28.08
2018-02-10T10:14:03.607Z,28.75
2018-02-10T10:16:31.039Z,28.15
2018-02-10T10:18:58.461Z,29.08
2018-02-10T10:21:25.900Z,29.58
2018-02-10T10:23:53.353Z,27.65
2018-02-10T10:26:20.815Z,29.65
2018-02-10T10:28:48.233Z,29.87
2018-02-10T10:31:15.676Z,29.65
2018-02-10T10:33:43.120Z,28.10
2018-02-10T10:36:10.548Z,28.33
2018-02-10T10:38:37.984Z,28.30
2018-02-10T10:41:05.876Z,27.73
2018-02-10T10:43:33.326Z,28.08
2018-02-10T10:46:00.822Z,30.10
2018-02-10T10:48:28.298Z,28.77
2018-02-10T10:50:55.709Z,28.48
2018-02-10T10:53:23.141Z,27.40
2018-02-10T10:55:50.619Z,28.67
2018-02-10T10:58:18.044Z,27.15
2018-02-10T11:00:45.488Z,28.90
2018-02-10T11:03:12.932Z,28.00
2018-02-10T11:05:40.364Z,27.35
2018-02-10T11:08:07.784Z,28.60
2018-02-10T11:10:35.263Z,29.20
2018-02-10T11:13:02.695Z,27.73
2018-02-10T11:15:30.194Z,27.57
2018-02-10T11:17:57.663Z,28.45
2018-02-10T11:20:25.073Z,29.23
2018-02-10T11:22:52.524Z,26.50
2018-02-10T11:25:19.961Z,28.50
2018-02-10T11:27:47.400Z,26.45
2018-02-10T11:30:14.821Z,27.40
2018-02-10T11:32:42.264Z,28.23
2018-02-10T11:35:09.670Z,26.73
2018-02-10T11:37:37.278Z,28.60
2018-02-10T11:40:04.752Z,27.70
2018-02-10T11:42:32.152Z,27.50
2018-02-10T11:44:59.572Z,26.80
2018-02-10T11:47:27.005Z,29.75
2018-02-10T11:49:54.438Z,27.85
2018-02-10T11:52:21.857Z,27.48
2018-02-10T11:54:49.281Z,29.20
2018-02-10T11:57:16.700Z,28.73
2018-02-10T11:59:44.114Z,27.25
2018-02-10T12:02:11.540Z,29.40
2018-02-10T12:04:38.953Z,28.30
2018-02-10T12:07:06.400Z,28.08
2018-02-10T12:09:33.809Z,27.58
2018-02-10T12:12:01.250Z,28.40
2018-02-10T12:14:28.685Z,29.42
2018-02-10T12:16:56.099Z,28.13
2018-02-10T12:19:23.528Z,28.38
2018-02-10T12:21:50.972Z,28.73
2018-02-10T12:24:18.384Z,28.43
2018-02-10T12:26:45.800Z,28.43
2018-02-10T12:29:13.221Z,26.35
2018-02-10T12:31:40.640Z,26.85
2018-02-10T12:34:08.049Z,26.03
2018-02-10T12:36:35.473Z,26.90
2018-02-10T12:39:02.898Z,28.25
2018-02-10T12:41:30.334Z,25.77
2018-02-10T12:43:57.753Z,25.08
2018-02-10T12:46:25.175Z,28.30
2018-02-10T12:48:58.265Z,33.35
2018-02-10T12:51:25.681Z,29.35
2018-02-10T12:53:53.109Z,28.45
2018-02-10T12:56:20.529Z,27.27
2018-02-10T12:58:47.969Z,28.90
2018-02-10T13:01:15.389Z,28.30
2018-02-10T13:03:42.809Z,28.60
2018-02-10T13:06:10.244Z,29.15
2018-02-10T13:08:37.664Z,31.73
2018-02-10T13:11:05.084Z,28.95
2018-02-10T13:13:32.523Z,28.70
2018-02-10T13:15:59.937Z,29.73
2018-02-10T13:18:27.345Z,29.33
2018-02-10T13:20:54.752Z,26.40
2018-02-10T13:23:22.174Z,26.70
2018-02-10T13:25:49.585Z,27.00
2018-02-10T13:28:17.821Z,24.40
2018-02-10T13:30:45.241Z,25.30
2018-02-10T13:33:12.653Z,24.57
2018-02-10T13:35:40.068Z,26.93
2018-02-10T13:38:07.479Z,25.43
2018-02-10T13:40:34.908Z,26.07
2018-02-10T13:43:02.343Z,24.83
2018-02-10T13:45:29.821Z,27.37
2018-02-10T13:47:57.233Z,26.70
2018-02-10T13:50:24.644Z,25.80
2018-02-10T13:52:52.085Z,26.67
2018-02-10T13:55:19.496Z,25.33
2018-02-10T13:57:46.908Z,27.07
2018-02-10T14:00:14.333Z,25.57
2018-02-10T14:02:41.747Z,26.97
2018-02-10T14:05:09.161Z,28.20
2018-02-10T14:07:36.569Z,26.17
2018-02-10T14:10:04.037Z,26.23
2018-02-10T14:12:31.596Z,25.70
2018-02-10T14:14:59.074Z,27.00
2018-02-10T14:17:26.504Z,25.10
2018-02-10T14:19:53.932Z,25.70
2018-02-10T14:22:21.358Z,26.20
2018-02-10T14:24:48.778Z,26.27
2018-02-10T14:27:16.237Z,27.10
2018-02-10T14:29:43.656Z,27.30
2018-02-10T14:32:11.112Z,24.20
2018-02-10T14:34:38.532Z,26.00
2018-02-10T14:37:05.969Z,26.60
2018-02-10T14:39:33.385Z,26.80
2018-02-10T14:42:01.461Z,28.33
2018-02-10T14:44:28.922Z,29.97
2018-02-10T14:46:56.384Z,29.30
2018-02-10T14:49:24.804Z,29.13
2018-02-10T14:51:52.252Z,29.17
2018-02-10T14:54:19.687Z,28.90
2018-02-10T14:56:47.103Z,29.53
2018-02-10T14:59:14.513Z,29.27
2018-02-10T15:01:41.941Z,27.43
2018-02-10T15:04:09.349Z,28.53
2018-02-10T15:06:36.836Z,30.30
2018-02-10T15:09:04.260Z,31.47
2018-02-10T15:11:31.692Z,31.10
2018-02-10T15:13:59.104Z,31.17
2018-02-10T15:16:26.508Z,31.93
2018-02-10T15:18:53.942Z,33.93
2018-02-10T15:21:21.352Z,31.60
2018-02-10T15:23:48.762Z,34.60
2018-02-10T15:26:16.203Z,32.27
2018-02-10T15:28:43.604Z,32.90
2018-02-10T15:34:35.665Z,35.03
2018-02-10T15:37:03.086Z,35.50
2018-02-10T15:39:30.601Z,36.90
2018-02-10T15:41:58.029Z,36.77
2018-02-10T15:44:25.439Z,35.80
2018-02-10T15:46:52.841Z,37.57
2018-02-10T15:49:20.254Z,35.83
2018-02-10T15:51:47.669Z,38.40
2018-02-10T15:54:15.098Z,34.73
2018-02-10T15:56:42.512Z,36.07
2018-02-10T15:59:09.953Z,36.50
2018-02-10T16:01:37.366Z,35.27
2018-02-10T16:04:04.821Z,33.70
2018-02-10T16:06:32.241Z,32.60
2018-02-10T16:08:59.715Z,32.90
2018-02-10T16:11:27.184Z,30.67
2018-02-10T16:13:54.624Z,30.87
2018-02-10T16:16:22.093Z,31.13
2018-02-10T16:18:49.548Z,32.03
2018-02-10T16:21:16.969Z,28.97
2018-02-10T16:23:44.423Z,29.43
2018-02-10T16:26:11.825Z,29.60
2018-02-10T16:28:39.250Z,28.70
2018-02-10T16:31:06.657Z,29.63
2018-02-10T16:33:34.143Z,30.17
2018-02-10T16:36:01.582Z,29.90
2018-02-10T16:38:29.003Z,29.13
2018-02-10T16:40:56.426Z,27.23
2018-02-10T16:43:23.849Z,27.03
2018-02-10T16:45:51.270Z,27.10
2018-02-10T16:48:18.682Z,29.00
2018-02-10T16:50:46.117Z,27.70
2018-02-10T16:53:13.534Z,29.10
2018-02-10T16:55:40.990Z,27.75
2018-02-10T16:58:08.455Z,28.12
2018-02-10T17:00:35.869Z,27.17
2018-02-10T17:03:03.289Z,26.20
2018-02-10T17:05:30.741Z,27.13
2018-02-10T17:07:58.221Z,26.05
2018-02-10T17:10:25.655Z,25.58
2018-02-10T17:12:53.185Z,23.97
2018-02-10T17:15:20.638Z,23.50
2018-02-10T17:17:48.099Z,24.00
2018-02-10T17:20:15.521Z,24.70
2018-02-10T17:22:42.957Z,24.20
2018-02-10T17:25:10.473Z,24.67
2018-02-10T17:27:37.896Z,23.70
2018-02-10T17:30:05.345Z,24.87
2018-02-10T17:32:32.764Z,25.05
2018-02-10T17:35:09.953Z,25.05
2018-02-10T17:37:37.408Z,25.85
2018-02-10T17:40:08.706Z,26.95
2018-02-10T17:42:36.116Z,28.10
2018-02-10T17:45:03.532Z,28.15
2018-02-10T17:47:30.964Z,29.10
2018-02-10T17:49:58.380Z,29.52
2018-02-10T17:52:25.798Z,27.75
2018-02-10T17:54:53.232Z,27.05
2018-02-10T17:57:20.633Z,27.23
2018-02-10T17:59:48.056Z,26.83
2018-02-10T18:02:15.473Z,27.52
2018-02-10T18:04:46.760Z,27.33
2018-02-10T18:07:14.204Z,25.90
2018-02-10T18:09:41.669Z,26.45
2018-02-10T18:12:09.133Z,26.05
2018-02-10T18:14:36.549Z,26.73
2018-02-10T18:17:10.453Z,25.67
2018-02-10T18:19:37.869Z,25.70
2018-02-10T18:22:05.349Z,25.73
2018-02-10T18:24:32.757Z,25.88
2018-02-10T18:27:00.173Z,25.02
2018-02-10T18:29:27.591Z,25.12
2018-02-10T18:31:55.004Z,24.77
2018-02-10T18:34:28.797Z,26.12
2018-02-10T18:36:56.218Z,26.50
2018-02-10T18:39:23.649Z,24.10
2018-02-10T18:41:51.066Z,24.42
2018-02-10T18:44:18.481Z,25.45
2018-02-10T18:46:45.900Z,23.48
2018-02-10T18:49:13.321Z,24.83
2018-02-10T18:51:40.749Z,22.23
2018-02-10T18:54:08.164Z,24.40
2018-02-10T18:56:35.602Z,24.85
2018-02-10T18:59:03.012Z,25.65
2018-02-10T19:01:30.428Z,24.55
2018-02-10T19:03:57.849Z,24.35
2018-02-10T19:06:25.304Z,26.10
2018-02-10T19:08:52.787Z,26.65
2018-02-10T19:11:20.158Z,28.65
2018-02-10T19:13:47.602Z,26.80
2018-02-10T19:16:21.296Z,26.37
2018-02-10T19:18:48.746Z,26.23
2018-02-10T19:21:16.153Z,28.73
2018-02-10T19:23:43.566Z,25.77
2018-02-10T19:26:11.012Z,28.75
2018-02-10T19:28:38.481Z,27.55
2018-02-10T19:31:05.960Z,26.27
2018-02-10T19:33:33.371Z,25.65
2018-02-10T19:36:00.973Z,26.50
2018-02-10T19:38:28.962Z,25.70
2018-02-10T19:40:56.437Z,26.05
2018-02-10T19:43:24.470Z,26.55
2018-02-10T19:45:53.149Z,26.65
2018-02-10T19:48:20.685Z,26.50
2018-02-10T19:50:48.128Z,27.45
2018-02-10T19:53:15.564Z,26.15
2018-02-10T19:55:43.849Z,26.02
2018-02-10T19:58:12.304Z,23.27
2018-02-10T20:00:39.749Z,22.87
2018-02-10T20:03:08.056Z,24.60
2018-02-10T20:05:35.925Z,22.80
2018-02-10T20:08:03.345Z,22.80
2018-02-10T20:10:31.330Z,23.80
2018-02-10T20:12:58.818Z,21.98
2018-02-10T20:15:26.244Z,21.75
2018-02-10T20:17:53.653Z,22.35
2018-02-10T20:20:21.089Z,21.87
2018-02-10T20:22:48.513Z,21.65
2018-02-10T20:25:15.925Z,22.20
2018-02-10T20:27:43.432Z,21.83
2018-02-10T20:30:10.852Z,22.30
2018-02-10T20:32:38.319Z,20.90
2018-02-10T20:35:05.741Z,22.95
2018-02-10T20:37:33.152Z,23.52
2018-02-10T20:40:00.634Z,22.52
2018-02-10T20:42:28.019Z,23.23
2018-02-10T20:44:55.491Z,22.90
2018-02-10T20:47:22.909Z,23.70
2018-02-10T20:49:50.356Z,21.55
2018-02-10T20:52:17.777Z,20.73
2018-02-10T20:54:45.215Z,22.05
2018-02-10T20:57:12.697Z,22.98
2018-02-10T20:59:40.113Z,21.23
2018-02-10T21:02:07.589Z,20.92
2018-02-10T21:04:35.010Z,20.60
2018-02-10T21:07:02.436Z,20.55
2018-02-10T21:09:29.865Z,20.12
2018-02-10T21:11:57.337Z,21.70
2018-02-10T21:14:24.765Z,18.90
2018-02-10T21:16:52.205Z,21.30
2018-02-10T21:19:19.658Z,18.60
2018-02-10T21:21:47.080Z,18.92
2018-02-10T21:24:14.489Z,20.00
2018-02-10T21:26:41.924Z,19.23
2018-02-10T21:29:09.335Z,18.60
2018-02-10T21:31:36.753Z,19.60
2018-02-10T21:34:04.168Z,18.23
2018-02-10T21:36:31.624Z,18.33
2018-02-10T21:38:59.029Z,18.48
2018-02-10T21:41:26.446Z,17.00
2018-02-10T21:43:53.924Z,16.45
2018-02-10T21:46:21.327Z,18.30
2018-02-10T21:48:48.776Z,16.95
2018-02-10T21:51:16.184Z,16.08
2018-02-10T21:53:43.674Z,16.50
2018-02-10T21:56:11.121Z,16.48
2018-02-10T21:58:38.527Z,15.55
2018-02-10T22:01:05.949Z,15.35
2018-02-10T22:03:33.361Z,14.87
2018-02-10T22:06:00.784Z,14.60
2018-02-10T22:08:28.204Z,16.30
2018-02-10T22:10:55.693Z,15.75
2018-02-10T22:13:23.072Z,15.73
2018-02-10T22:15:50.494Z,15.68
2018-02-10T22:18:17.924Z,15.30
2018-02-10T22:20:45.338Z,16.33
2018-02-10T22:23:12.760Z,14.57
2018-02-10T22:25:40.177Z,14.68
2018-02-10T22:28:07.625Z,15.45
2018-02-10T22:30:35.050Z,13.73
2018-02-10T22:33:02.497Z,14.60
2018-02-10T22:35:29.941Z,15.05
2018-02-10T22:37:57.368Z,13.85
2018-02-10T22:40:24.785Z,14.82
2018-02-10T22:42:52.238Z,14.40
2018-02-10T22:45:19.661Z,14.80
2018-02-10T22:47:47.090Z,14.60
2018-02-10T22:50:14.518Z,13.85
2018-02-10T22:52:41.937Z,14.75
2018-02-10T22:55:09.385Z,13.52
2018-02-10T22:57:36.812Z,13.60
2018-02-10T23:00:04.246Z,14.80
2018-02-10T23:02:31.679Z,14.57
2018-02-10T23:04:59.105Z,14.27
2018-02-10T23:07:26.547Z,14.02
2018-02-10T23:09:53.973Z,14.20
2018-02-10T23:12:21.380Z,14.23
2018-02-10T23:14:48.808Z,13.85
2018-02-10T23:17:16.215Z,14.82
2018-02-10T23:19:43.669Z,14.00
2018-02-10T23:22:11.094Z,14.00
2018-02-10T23:24:38.528Z,14.60
2018-02-10T23:27:05.945Z,12.95
2018-02-10T23:29:33.357Z,13.55
2018-02-10T23:32:00.786Z,13.52
2018-02-10T23:34:28.276Z,14.05
2018-02-10T23:36:55.701Z,12.88
2018-02-10T23:39:23.117Z,13.55
2018-02-10T23:41:50.586Z,13.45
2018-02-10T23:44:18.053Z,13.57
2018-02-10T23:46:45.466Z,13.52
2018-02-10T23:49:12.929Z,13.93
2018-02-10T23:51:40.366Z,13.07
2018-02-10T23:54:07.816Z,13.60
2018-02-10T23:56:35.233Z,13.90
2018-02-10T23:59:02.640Z,13.00
